Time;durP1;ratioP1;P1;durP2;ratioP2;P2;SDS_P1;SDS_P2;PMS_P1;PMS_P2;Temp;Humidity;BMP_temperature;BMP_pressure;BME280_temperature;BME280_humidity;BME280_pressure;Samples;Min_cycle;Max_cycle;Signal;HPM_P1;HPM_P2
2024/03/21 00:00:57;;;;;;;12.90;6.03;;;;;;;2.36;62.99;100257.13;4915205;29;20083;-76
2024/03/21 00:03:26;;;;;;;15.23;6.07;;;;;;;2.33;63.51;100259.94;4936620;28;20051;-78
2024/03/21 00:05:52;;;;;;;13.63;5.90;;;;;;;2.31;63.92;100260.03;4935121;29;20471;-77
2024/03/21 00:08:19;;;;;;;11.17;6.47;;;;;;;2.24;64.89;100258.72;4919459;29;20069;-76
2024/03/21 00:10:45;;;;;;;11.40;5.47;;;;;;;2.22;65.88;100255.31;4902903;29;20052;-76
2024/03/21 00:13:15;;;;;;;10.27;5.57;;;;;;;2.15;66.91;100261.03;4936815;28;20529;-75
2024/03/21 00:15:45;;;;;;;12.90;5.47;;;;;;;2.17;67.13;100249.50;4940601;28;20059;-75
2024/03/21 00:18:14;;;;;;;12.73;5.55;;;;;;;2.07;67.42;100250.16;4973026;28;20481;-76
2024/03/21 00:20:40;;;;;;;16.40;6.07;;;;;;;2.01;68.23;100246.13;4942309;28;20054;-77
2024/03/21 00:23:07;;;;;;;10.53;5.77;;;;;;;1.98;69.11;100251.53;4961383;28;20125;-77
2024/03/21 00:25:34;;;;;;;9.53;5.77;;;;;;;1.94;69.51;100247.38;4989191;28;20141;-76
2024/03/21 00:28:00;;;;;;;13.00;5.50;;;;;;;1.92;70.29;100251.91;4940868;28;20046;-77
2024/03/21 00:30:26;;;;;;;11.43;5.60;;;;;;;1.89;69.97;100253.84;4940817;28;20047;-76
2024/03/21 00:32:51;;;;;;;10.80;5.60;;;;;;;1.91;70.00;100249.38;5007949;28;20057;-76
2024/03/21 00:35:17;;;;;;;9.77;5.13;;;;;;;1.88;70.17;100250.38;4978895;28;20124;-77
2024/03/21 00:37:43;;;;;;;9.77;5.20;;;;;;;1.84;71.54;100251.50;4963762;28;20045;-76
2024/03/21 00:40:10;;;;;;;9.70;5.50;;;;;;;1.80;72.43;100247.34;4962482;28;20111;-77
2024/03/21 00:42:42;;;;;;;13.63;5.60;;;;;;;1.81;72.83;100250.81;4963377;28;20096;-76
2024/03/21 00:45:09;;;;;;;9.27;5.33;;;;;;;1.81;73.02;100256.06;4978955;28;20452;-75
2024/03/21 00:47:35;;;;;;;9.13;5.00;;;;;;;1.79;73.32;100253.53;4999102;28;20072;-74
2024/03/21 00:50:03;;;;;;;11.60;5.87;;;;;;;1.80;73.45;100249.13;5001578;28;20111;-74
2024/03/21 00:52:30;;;;;;;13.77;6.43;;;;;;;1.78;73.56;100247.44;5031049;28;20076;-74
2024/03/21 00:54:57;;;;;;;11.77;6.57;;;;;;;1.77;74.10;100243.13;4997688;28;20049;-77
2024/03/21 00:57:23;;;;;;;11.53;6.50;;;;;;;1.81;73.73;100245.56;4981601;28;20447;-77
2024/03/21 00:59:49;;;;;;;10.30;5.90;;;;;;;1.84;74.04;100242.78;4982534;28;20053;-76
2024/03/21 01:02:15;;;;;;;10.20;6.33;;;;;;;1.87;74.20;100248.69;5001122;28;20203;-77
2024/03/21 01:04:44;;;;;;;15.50;7.17;;;;;;;1.90;73.93;100247.66;4984457;28;20045;-77
2024/03/21 01:07:10;;;;;;;8.80;5.60;;;;;;;1.97;73.91;100249.00;4969660;28;20099;-78
2024/03/21 01:09:39;;;;;;;10.10;5.97;;;;;;;2.05;74.16;100238.91;5000274;28;20041;-77
2024/03/21 01:12:07;;;;;;;12.07;6.53;;;;;;;1.95;74.68;100246.47;4998702;28;20148;-74
2024/03/21 01:14:35;;;;;;;11.13;5.57;;;;;;;2.00;74.71;100244.41;5016205;28;20076;-75
2024/03/21 01:17:01;;;;;;;13.33;5.87;;;;;;;1.93;74.99;100244.88;4967981;28;20045;-75
2024/03/21 01:19:32;;;;;;;9.57;5.40;;;;;;;1.98;75.47;100251.53;4967541;28;20044;-75
2024/03/21 01:21:58;;;;;;;8.00;5.25;;;;;;;1.95;75.35;100243.84;4999355;28;20049;-76
2024/03/21 01:24:24;;;;;;;10.33;5.93;;;;;;;1.90;75.74;100242.41;5014180;28;20049;-75
2024/03/21 01:26:51;;;;;;;9.57;5.23;;;;;;;1.89;75.81;100243.38;5018757;28;20483;-76
2024/03/21 01:29:17;;;;;;;10.80;5.90;;;;;;;1.86;75.97;100241.75;5034814;28;20047;-74
2024/03/21 01:31:43;;;;;;;14.57;6.20;;;;;;;1.85;76.29;100244.47;5051055;28;20037;-74
2024/03/21 01:34:10;;;;;;;11.03;6.40;;;;;;;1.84;77.30;100245.41;5035564;28;20056;-76
2024/03/21 01:36:46;;;;;;;15.73;7.13;;;;;;;1.86;77.83;100248.78;5006718;28;20156;-75
2024/03/21 01:39:14;;;;;;;12.37;6.43;;;;;;;1.85;78.63;100244.47;5026163;28;20106;-75
2024/03/21 01:41:41;;;;;;;13.03;7.30;;;;;;;1.83;78.71;100241.09;5021516;28;20087;-76
2024/03/21 01:44:21;;;;;;;14.03;6.63;;;;;;;1.92;79.96;100243.19;4979702;28;20054;-76
2024/03/21 01:46:47;;;;;;;12.30;6.20;;;;;;;1.81;80.48;100241.19;4978760;28;20066;-76
2024/03/21 01:49:14;;;;;;;10.90;6.33;;;;;;;1.86;80.98;100251.41;4963153;28;20050;-75
2024/03/21 01:51:45;;;;;;;12.93;6.50;;;;;;;1.83;81.91;100246.34;4946891;28;20504;-74
2024/03/21 01:54:14;;;;;;;14.20;7.27;;;;;;;1.83;82.77;100243.72;4962510;28;20076;-75
2024/03/21 01:56:41;;;;;;;19.93;8.17;;;;;;;1.71;83.84;100243.50;4994389;28;20053;-74
2024/03/21 01:59:08;;;;;;;13.53;7.13;;;;;;;1.77;83.42;100243.13;4993837;28;20050;-75
2024/03/21 02:01:36;;;;;;;13.57;7.27;;;;;;;1.68;83.58;100237.56;4945842;28;20038;-75
2024/03/21 02:04:04;;;;;;;12.20;6.30;;;;;;;1.69;84.06;100239.28;4978422;28;20077;-75
2024/03/21 02:06:35;;;;;;;12.73;6.80;;;;;;;1.56;85.05;100246.13;4965150;28;20488;-75
2024/03/21 02:09:06;;;;;;;13.63;7.30;;;;;;;1.49;85.00;100242.19;5013586;28;20046;-75
2024/03/21 02:11:32;;;;;;;16.10;7.60;;;;;;;1.40;86.42;100243.53;5014137;28;20296;-75
2024/03/21 02:14:02;;;;;;;13.00;7.13;;;;;;;1.36;87.91;100251.66;4998030;28;20072;-74
2024/03/21 02:16:28;;;;;;;15.37;7.70;;;;;;;1.32;88.40;100244.91;5018018;28;20045;-75
2024/03/21 02:18:53;;;;;;;19.07;8.27;;;;;;;1.28;89.72;100238.13;5018758;28;20116;-75
2024/03/21 02:24:07;;;;;;;18.03;8.83;;;;;;;1.32;91.42;100242.28;5023741;28;20053;-75
2024/03/21 02:26:33;;;;;;;17.87;8.13;;;;;;;1.27;91.54;100236.47;5054335;28;20498;-76
2024/03/21 02:29:05;;;;;;;17.60;9.07;;;;;;;1.29;92.15;100235.44;5005423;28;20045;-75
2024/03/21 02:31:31;;;;;;;19.50;9.07;;;;;;;1.28;92.77;100236.38;5038795;28;20565;-75
2024/03/21 02:33:57;;;;;;;19.00;9.57;;;;;;;1.28;93.38;100238.13;5021455;28;20068;-76
2024/03/21 02:36:23;;;;;;;27.47;11.50;;;;;;;1.25;94.40;100238.31;5005303;28;20476;-75
2024/03/21 02:38:49;;;;;;;25.70;11.67;;;;;;;1.26;94.27;100240.84;5021785;28;20048;-76
2024/03/21 02:41:15;;;;;;;22.23;10.30;;;;;;;1.26;94.47;100237.41;5054410;28;20060;-75
2024/03/21 02:43:41;;;;;;;23.43;9.83;;;;;;;1.25;94.86;100233.94;5038148;28;20132;-75
2024/03/21 02:46:08;;;;;;;20.03;8.73;;;;;;;1.27;95.30;100244.31;5021191;28;20037;-74
2024/03/21 02:48:36;;;;;;;17.73;8.97;;;;;;;1.24;96.08;100234.88;5004258;28;20159;-73
2024/03/21 02:51:02;;;;;;;21.60;8.93;;;;;;;1.24;96.79;100229.63;4980073;28;20050;-73
2024/03/21 02:53:29;;;;;;;19.47;9.37;;;;;;;1.30;97.27;100238.91;4964075;28;20057;-75
2024/03/21 02:55:55;;;;;;;20.43;9.27;;;;;;;1.25;96.92;100238.31;4980477;28;20061;-76
2024/03/21 02:58:22;;;;;;;19.40;9.50;;;;;;;1.23;97.20;100229.72;4980585;28;20065;-74
2024/03/21 03:00:48;;;;;;;22.83;10.03;;;;;;;1.20;97.57;100242.97;4964539;28;20181;-75
2024/03/21 03:03:14;;;;;;;19.53;10.63;;;;;;;1.13;98.35;100236.38;4964549;28;20061;-76
2024/03/21 03:05:54;;;;;;;19.90;9.80;;;;;;;1.19;98.97;100236.88;4980743;28;20127;-76
2024/03/21 03:08:21;;;;;;;20.77;9.37;;;;;;;1.08;99.46;100236.63;4964773;28;20082;-75
2024/03/21 03:10:47;;;;;;;22.07;8.93;;;;;;;1.06;99.31;100237.66;4966859;28;20056;-72
2024/03/21 03:13:13;;;;;;;18.13;9.47;;;;;;;1.02;100.00;100238.72;4998847;28;20033;-72
2024/03/21 03:15:41;;;;;;;20.77;9.30;;;;;;;1.07;100.00;100232.34;4984533;28;20136;-73
2024/03/21 03:18:08;;;;;;;20.27;8.97;;;;;;;0.99;100.00;100225.81;5015105;28;20050;-75
2024/03/21 03:20:34;;;;;;;22.37;9.47;;;;;;;1.01;100.00;100224.84;4950197;28;20073;-74
2024/03/21 03:23:01;;;;;;;25.30;9.70;;;;;;;1.03;100.00;100235.22;5016866;28;20056;-74
2024/03/21 03:25:27;;;;;;;22.70;9.57;;;;;;;1.01;100.00;100229.22;5019383;28;20036;-68
2024/03/21 03:27:54;;;;;;;21.70;10.03;;;;;;;1.00;100.00;100228.34;5018971;28;20083;-68
2024/03/21 03:30:20;;;;;;;21.00;10.30;;;;;;;1.03;100.00;100229.97;5035801;28;20048;-67
2024/03/21 03:33:05;;;;;;;24.83;11.40;;;;;;;1.05;100.00;100228.97;5019869;28;20049;-67
2024/03/21 03:35:39;;;;;;;25.27;10.93;;;;;;;1.06;100.00;100232.44;5052454;28;20055;-66
2024/03/21 03:38:08;;;;;;;23.37;10.10;;;;;;;1.10;100.00;100228.69;5003158;28;20106;-66
2024/03/21 03:40:34;;;;;;;26.53;10.53;;;;;;;1.10;100.00;100226.09;5050763;28;20081;-68
2024/03/21 03:43:00;;;;;;;22.13;10.50;;;;;;;1.15;100.00;100232.75;5016104;28;20046;-67
2024/03/21 03:45:26;;;;;;;28.87;11.20;;;;;;;1.19;100.00;100233.41;5016510;28;20060;-66
2024/03/21 03:47:52;;;;;;;20.00;10.97;;;;;;;1.21;100.00;100236.81;4983494;28;20044;-66
2024/03/21 03:50:18;;;;;;;25.80;11.70;;;;;;;1.22;100.00;100234.09;5033554;28;20053;-68
2024/03/21 03:52:44;;;;;;;20.63;11.27;;;;;;;1.27;100.00;100232.09;5016022;28;20041;-70
2024/03/21 03:55:10;;;;;;;22.33;11.90;;;;;;;1.28;100.00;100243.38;5015671;28;20045;-66
2024/03/21 03:57:35;;;;;;;22.27;11.03;;;;;;;1.28;100.00;100243.38;5033012;28;20049;-66
2024/03/21 04:00:02;;;;;;;22.47;11.00;;;;;;;1.27;100.00;100246.94;5015843;28;20041;-66
2024/03/21 04:02:38;;;;;;;25.10;10.60;;;;;;;1.21;100.00;100244.66;5016936;28;20041;-68
2024/03/21 04:05:05;;;;;;;22.43;11.63;;;;;;;1.12;100.00;100247.78;5015573;28;20395;-66
2024/03/21 04:07:32;;;;;;;20.67;10.73;;;;;;;1.10;100.00;100247.00;5015666;28;20064;-66
2024/03/21 04:09:58;;;;;;;21.03;10.53;;;;;;;1.04;100.00;100260.44;4983044;28;20133;-67
2024/03/21 04:12:25;;;;;;;22.50;11.03;;;;;;;1.06;100.00;100256.78;4998620;28;20048;-66
2024/03/21 04:14:52;;;;;;;18.40;10.27;;;;;;;1.06;100.00;100255.97;5013407;28;20049;-66
2024/03/21 04:17:19;;;;;;;21.03;10.20;;;;;;;1.07;100.00;100252.41;5030031;28;20535;-68
2024/03/21 04:19:45;;;;;;;18.90;9.80;;;;;;;1.04;100.00;100255.19;5013769;28;20140;-67
2024/03/21 04:22:11;;;;;;;19.23;10.13;;;;;;;1.02;100.00;100249.19;5013958;28;20041;-68
2024/03/21 04:24:39;;;;;;;22.40;11.43;;;;;;;1.01;100.00;100255.38;5015044;28;20050;-67
2024/03/21 04:27:07;;;;;;;19.03;9.50;;;;;;;1.08;100.00;100251.47;5000927;28;20049;-67
2024/03/21 04:29:33;;;;;;;18.57;10.50;;;;;;;1.08;100.00;100261.94;5015670;28;20048;-67
2024/03/21 04:31:59;;;;;;;17.03;9.57;;;;;;;1.12;100.00;100258.25;5015676;28;20041;-66
2024/03/21 04:34:24;;;;;;;24.60;11.27;;;;;;;1.10;100.00;100252.25;5032467;28;20045;-68
2024/03/21 04:36:51;;;;;;;22.77;11.23;;;;;;;1.07;100.00;100252.41;5015373;28;20120;-68
2024/03/21 04:39:16;;;;;;;24.20;10.50;;;;;;;1.08;100.00;100252.31;5032762;28;20045;-68
2024/03/21 04:41:42;;;;;;;23.90;11.87;;;;;;;1.02;100.00;100252.66;5018015;28;20059;-67
2024/03/21 04:44:08;;;;;;;27.07;13.60;;;;;;;1.02;100.00;100254.41;5067962;28;20487;-67
2024/03/21 04:46:35;;;;;;;20.67;10.47;;;;;;;1.14;100.00;100251.13;5002226;28;20463;-68
2024/03/21 04:49:01;;;;;;;19.83;11.07;;;;;;;1.09;100.00;100246.16;5051956;28;20048;-68
2024/03/21 04:51:27;;;;;;;23.83;11.23;;;;;;;1.17;100.00;100249.19;5051546;28;20495;-69
2024/03/21 04:53:53;;;;;;;18.87;10.60;;;;;;;1.26;100.00;100245.25;5013633;28;20475;-68
2024/03/21 04:56:18;;;;;;;25.73;12.07;;;;;;;1.33;100.00;100255.28;5013757;28;20057;-68
2024/03/21 04:58:44;;;;;;;26.43;11.83;;;;;;;1.40;100.00;100263.63;4997466;28;20135;-67
2024/03/21 05:01:10;;;;;;;22.17;12.30;;;;;;;1.45;100.00;100251.13;5012661;28;20037;-67
2024/03/21 05:03:37;;;;;;;21.87;12.20;;;;;;;1.53;100.00;100249.78;5001150;28;20503;-67
2024/03/21 05:06:04;;;;;;;21.77;11.87;;;;;;;1.62;100.00;100249.25;4969086;28;20065;-67
2024/03/21 05:08:29;;;;;;;20.07;11.40;;;;;;;1.68;100.00;100250.66;4966835;28;20066;-67
2024/03/21 05:10:56;;;;;;;23.87;11.77;;;;;;;1.77;100.00;100257.16;4990808;28;20038;-67
2024/03/21 05:13:22;;;;;;;22.00;10.90;;;;;;;1.85;100.00;100260.16;4970815;28;20060;-68
2024/03/21 05:15:48;;;;;;;18.73;11.03;;;;;;;1.93;100.00;100264.06;4987359;28;20050;-67
2024/03/21 05:18:14;;;;;;;20.20;11.77;;;;;;;1.96;100.00;100258.63;4970156;28;20041;-68
2024/03/21 05:20:40;;;;;;;24.20;13.17;;;;;;;2.06;100.00;100264.19;4999919;28;20056;-67
2024/03/21 05:23:06;;;;;;;20.00;11.00;;;;;;;2.13;100.00;100265.50;5000415;28;20053;-68
2024/03/21 05:25:34;;;;;;;18.07;10.90;;;;;;;2.28;100.00;100260.19;5001346;28;20508;-68
2024/03/21 05:28:00;;;;;;;20.60;10.93;;;;;;;2.32;100.00;100263.50;5021216;28;20128;-67
2024/03/21 05:30:26;;;;;;;19.77;11.17;;;;;;;2.36;100.00;100262.38;5004207;28;20135;-68
2024/03/21 05:32:52;;;;;;;22.63;12.43;;;;;;;2.43;100.00;100267.16;5029306;28;20041;-68
2024/03/21 05:35:17;;;;;;;19.53;11.30;;;;;;;2.51;100.00;100267.53;4986980;28;20108;-68
2024/03/21 05:37:43;;;;;;;21.50;11.53;;;;;;;2.60;98.69;100268.78;5047217;28;20502;-67
2024/03/21 05:40:09;;;;;;;21.93;11.90;;;;;;;2.73;97.75;100272.31;5036850;28;20476;-68
2024/03/21 05:42:35;;;;;;;26.33;14.70;;;;;;;2.79;96.83;100272.81;5017497;28;20056;-68
2024/03/21 05:45:01;;;;;;;28.57;15.37;;;;;;;2.89;96.13;100278.34;5050850;28;20040;-69
2024/03/21 05:47:27;;;;;;;28.43;15.20;;;;;;;2.93;95.95;100280.66;5001747;28;20040;-67
2024/03/21 05:49:53;;;;;;;33.73;17.77;;;;;;;2.96;95.25;100274.38;5056956;28;20383;-66
2024/03/21 05:52:20;;;;;;;26.00;15.13;;;;;;;3.09;95.20;100283.19;5050925;28;20132;-67
2024/03/21 05:54:49;;;;;;;27.33;15.07;;;;;;;3.12;94.58;100280.38;5067629;28;20131;-66
2024/03/21 05:57:17;;;;;;;29.43;15.77;;;;;;;3.09;93.80;100286.63;5071550;28;20041;-66
2024/03/21 05:59:44;;;;;;;27.30;15.93;;;;;;;3.12;93.52;100288.25;5037889;28;20044;-66
2024/03/21 06:02:10;;;;;;;34.20;16.30;;;;;;;3.16;93.23;100282.72;5072922;28;20482;-66
2024/03/21 06:04:36;;;;;;;34.40;17.40;;;;;;;3.22;92.90;100284.94;5074229;28;20036;-66
2024/03/21 06:07:05;;;;;;;25.53;13.57;;;;;;;3.33;92.06;100281.66;5074512;28;20058;-67
2024/03/21 06:09:32;;;;;;;29.23;13.90;;;;;;;3.44;90.98;100290.50;5074598;28;20036;-67
2024/03/21 06:11:58;;;;;;;24.83;13.27;;;;;;;3.61;89.45;100293.84;5073229;28;20513;-68
2024/03/21 06:14:24;;;;;;;26.57;13.73;;;;;;;3.74;88.35;100297.41;5023450;28;20151;-67
2024/03/21 06:16:51;;;;;;;31.73;14.13;;;;;;;3.86;87.49;100291.34;5056586;28;20049;-68
2024/03/21 06:19:17;;;;;;;24.50;12.57;;;;;;;4.00;86.71;100283.41;5000945;28;20056;-66
2024/03/21 06:21:43;;;;;;;20.07;11.63;;;;;;;4.18;85.13;100293.50;5000673;28;20057;-67
2024/03/21 06:24:09;;;;;;;21.27;11.10;;;;;;;4.29;83.57;100288.38;5000694;28;20480;-68
2024/03/21 06:26:36;;;;;;;18.80;10.13;;;;;;;4.42;82.99;100284.00;5017077;28;20144;-67
2024/03/21 06:29:03;;;;;;;20.50;11.10;;;;;;;4.56;83.88;100285.69;4981287;28;20054;-67
2024/03/21 06:31:29;;;;;;;20.10;11.10;;;;;;;4.71;84.50;100284.63;4980930;28;20077;-66
2024/03/21 06:33:54;;;;;;;22.80;13.17;;;;;;;4.94;80.38;100297.03;4980771;28;20496;-66
2024/03/21 06:36:20;;;;;;;26.23;12.73;;;;;;;5.12;81.14;100285.22;5013341;28;20053;-66
2024/03/21 06:38:47;;;;;;;21.03;11.97;;;;;;;5.30;78.80;100293.63;4994944;28;20194;-66
2024/03/21 06:41:13;;;;;;;21.70;11.70;;;;;;;5.47;76.98;100291.47;5016902;28;20057;-66
2024/03/21 06:43:39;;;;;;;28.03;13.53;;;;;;;5.63;73.26;100292.03;5016584;28;20055;-67
2024/03/21 06:46:05;;;;;;;21.70;11.33;;;;;;;5.84;73.33;100295.81;5021080;28;20052;-67
2024/03/21 06:48:32;;;;;;;22.53;12.47;;;;;;;6.03;71.25;100290.84;5021053;28;20063;-66
2024/03/21 06:50:58;;;;;;;20.30;11.67;;;;;;;6.21;70.14;100294.75;5052865;28;20061;-66
2024/03/21 06:53:26;;;;;;;19.50;12.43;;;;;;;6.45;70.63;100294.69;5036007;28;20511;-66
2024/03/21 06:55:53;;;;;;;16.57;10.27;;;;;;;6.71;71.62;100288.28;5025825;28;20055;-66
2024/03/21 06:58:21;;;;;;;20.50;11.40;;;;;;;6.96;66.54;100284.59;5059470;28;20090;-66
2024/03/21 07:00:47;;;;;;;19.80;9.68;;;;;;;7.19;63.75;100291.53;5089590;28;20094;-67
2024/03/21 07:03:14;;;;;;;34.08;12.27;;;;;;;7.46;62.47;100292.00;5076833;28;20580;-67
2024/03/21 07:05:41;;;;;;;23.92;12.25;;;;;;;7.64;62.16;100285.25;5060544;28;20101;-67
2024/03/21 07:08:07;;;;;;;21.05;11.48;;;;;;;7.81;61.55;100290.00;5028179;28;20040;-67
2024/03/21 07:10:33;;;;;;;24.02;11.65;;;;;;;7.98;61.02;100292.94;5094592;28;20052;-67
2024/03/21 07:12:59;;;;;;;16.55;9.93;;;;;;;8.18;59.41;100278.09;5076505;28;20121;-66
2024/03/21 07:15:25;;;;;;;23.08;11.95;;;;;;;8.42;58.17;100284.00;5072220;28;20154;-66
2024/03/21 07:17:51;;;;;;;18.88;10.70;;;;;;;8.70;56.55;100278.06;5022606;28;20052;-67
2024/03/21 07:20:17;;;;;;;21.90;11.82;;;;;;;8.88;54.98;100273.84;4996472;28;20115;-67
2024/03/21 07:22:43;;;;;;;27.33;13.23;;;;;;;9.09;53.24;100279.94;5009075;28;20422;-67
2024/03/21 07:25:10;;;;;;;24.30;13.45;;;;;;;9.12;52.39;100268.25;4992273;28;20041;-67
2024/03/21 07:27:38;;;;;;;21.63;12.80;;;;;;;9.52;52.28;100277.00;5025367;28;20120;-68
2024/03/21 07:30:08;;;;;;;28.98;16.00;;;;;;;10.17;50.76;100280.75;4993567;28;20052;-67
2024/03/21 07:32:35;;;;;;;29.95;16.33;;;;;;;11.50;46.83;100270.75;5031716;28;20053;-67
2024/03/21 07:35:01;;;;;;;23.48;15.93;;;;;;;14.33;39.76;100282.09;5014865;28;20208;-67
2024/03/21 07:37:31;;;;;;;28.08;15.20;;;;;;;17.68;34.54;100275.88;4967845;28;20148;-67
2024/03/21 07:40:01;;;;;;;24.17;14.25;;;;;;;20.84;28.64;100277.47;4998923;28;20049;-67
2024/03/21 07:42:27;;;;;;;28.42;16.17;;;;;;;22.44;23.97;100280.88;5015386;28;20127;-68
2024/03/21 07:44:54;;;;;;;27.80;14.43;;;;;;;24.00;22.14;100283.13;5014492;28;20045;-68
2024/03/21 07:47:21;;;;;;;24.95;14.23;;;;;;;25.46;19.77;100279.53;4998593;28;20063;-68
2024/03/21 07:49:48;;;;;;;31.00;15.60;;;;;;;26.05;18.25;100279.97;5052168;28;20075;-68
2024/03/21 07:52:14;;;;;;;25.17;15.55;;;;;;;26.26;17.87;100282.00;5052281;28;20532;-68
2024/03/21 07:54:40;;;;;;;22.25;13.43;;;;;;;27.85;17.08;100278.53;5035580;28;20199;-69
2024/03/21 07:57:06;;;;;;;22.42;13.32;;;;;;;28.93;15.63;100281.03;5035689;28;20199;-69
2024/03/21 07:59:32;;;;;;;22.27;11.63;;;;;;;29.69;14.95;100277.75;5029407;28;20057;-69
2024/03/21 08:01:58;;;;;;;13.35;9.20;;;;;;;29.34;14.41;100281.09;5064863;28;20047;-69
2024/03/21 08:04:24;;;;;;;15.23;9.55;;;;;;;29.02;14.40;100283.03;5046688;28;20036;-69
2024/03/21 08:06:50;;;;;;;11.10;8.77;;;;;;;28.68;14.18;100273.47;5059333;28;20036;-69
2024/03/21 08:09:16;;;;;;;11.60;7.88;;;;;;;28.86;14.30;100272.25;5060683;28;20052;-68
2024/03/21 08:11:43;;;;;;;11.73;8.35;;;;;;;29.90;13.82;100262.22;5059709;28;20098;-69
2024/03/21 08:14:09;;;;;;;11.45;7.70;;;;;;;31.20;12.83;100259.59;5058812;28;20124;-69
2024/03/21 08:16:35;;;;;;;8.50;7.50;;;;;;;32.33;12.28;100264.13;5061235;28;20123;-69
2024/03/21 08:19:03;;;;;;;11.18;9.13;;;;;;;33.26;11.49;100261.19;5049191;28;20128;-70
2024/03/21 08:21:29;;;;;;;13.88;10.90;;;;;;;32.63;10.75;100263.94;5034673;28;20492;-69
2024/03/21 08:23:56;;;;;;;12.90;9.18;;;;;;;31.48;10.84;100256.28;5066468;28;20059;-69
2024/03/21 08:26:22;;;;;;;9.27;8.23;;;;;;;31.38;11.02;100245.34;5054489;28;20169;-69
2024/03/21 08:28:48;;;;;;;10.52;8.25;;;;;;;31.57;10.92;100251.03;5059673;28;20464;-69
2024/03/21 08:31:14;;;;;;;10.75;7.47;;;;;;;30.96;11.16;100244.84;5069380;28;20040;-70
2024/03/21 08:33:40;;;;;;;12.18;7.65;;;;;;;30.05;11.11;100235.69;5072365;28;20044;-71
2024/03/21 08:36:06;;;;;;;13.27;8.23;;;;;;;31.25;10.61;100245.88;5054999;28;20037;-70
2024/03/21 08:38:33;;;;;;;11.50;8.75;;;;;;;32.60;9.99;100234.25;5054627;28;20049;-70
2024/03/21 08:40:59;;;;;;;8.95;7.90;;;;;;;33.26;9.29;100239.16;5037136;28;20121;-70
2024/03/21 08:43:25;;;;;;;11.48;8.27;;;;;;;32.50;9.42;100237.09;5069659;28;20056;-70
2024/03/21 08:45:52;;;;;;;10.85;8.57;;;;;;;32.16;9.89;100233.44;5069211;28;20045;-70
2024/03/21 08:48:18;;;;;;;11.02;8.50;;;;;;;31.75;9.88;100229.28;5060946;28;20115;-70
2024/03/21 08:50:45;;;;;;;12.00;8.80;;;;;;;32.17;10.12;100240.59;5059804;28;20041;-70
2024/03/21 08:53:11;;;;;;;11.93;8.60;;;;;;;32.24;9.46;100232.84;5051981;28;20098;-71
2024/03/21 08:55:37;;;;;;;8.70;7.90;;;;;;;31.51;9.75;100228.25;5060688;28;20472;-70
2024/03/21 08:58:04;;;;;;;10.32;8.02;;;;;;;31.50;9.43;100229.38;5034688;28;20135;-69
2024/03/21 09:00:32;;;;;;;10.73;8.50;;;;;;;32.01;9.57;100225.31;5050803;28;20037;-70
2024/03/21 09:03:00;;;;;;;11.05;8.70;;;;;;;32.13;9.27;100220.28;5034447;28;20077;-70
2024/03/21 09:05:27;;;;;;;12.55;8.40;;;;;;;31.94;8.70;100215.72;5021611;28;20414;-70
2024/03/21 09:07:55;;;;;;;8.88;7.70;;;;;;;32.55;8.98;100223.28;5050871;28;20102;-70
2024/03/21 09:10:23;;;;;;;7.50;6.80;;;;;;;33.04;8.77;100222.31;5034505;28;20033;-70
2024/03/21 09:12:49;;;;;;;7.32;6.47;;;;;;;33.59;7.94;100211.50;5034077;28;20130;-70
2024/03/21 09:15:17;;;;;;;10.85;6.78;;;;;;;34.16;8.01;100216.81;5034190;28;20128;-70
2024/03/21 09:17:44;;;;;;;7.63;6.80;;;;;;;34.42;7.11;100213.66;5051755;28;20053;-70
2024/03/21 09:20:10;;;;;;;6.40;5.63;;;;;;;34.00;7.65;100206.28;5067035;28;20117;-70
2024/03/21 09:22:37;;;;;;;9.30;6.72;;;;;;;33.98;7.95;100208.53;5091729;28;20104;-70
2024/03/21 09:25:04;;;;;;;6.75;5.95;;;;;;;33.33;7.76;100212.06;5090514;28;20043;-70
2024/03/21 09:27:32;;;;;;;7.10;6.15;;;;;;;33.32;7.84;100215.94;5074264;28;20092;-70
2024/03/21 09:29:58;;;;;;;6.47;5.38;;;;;;;32.69;7.82;100199.50;5090666;28;20120;-69
2024/03/21 09:32:25;;;;;;;7.25;5.72;;;;;;;31.97;8.15;100202.22;5090539;28;20043;-70
2024/03/21 09:34:51;;;;;;;6.38;5.60;;;;;;;31.39;8.47;100196.72;5086947;28;20044;-70
2024/03/21 09:37:19;;;;;;;7.97;5.80;;;;;;;31.72;8.33;100202.34;5069795;28;20047;-70
2024/03/21 09:39:46;;;;;;;7.82;5.22;;;;;;;31.18;8.40;100193.22;5053836;28;20044;-70
2024/03/21 09:42:16;;;;;;;5.85;5.22;;;;;;;30.72;8.47;100181.47;5037577;28;20067;-70
2024/03/21 09:44:56;;;;;;;7.32;5.50;;;;;;;29.93;8.75;100183.06;5070288;28;20040;-70
2024/03/21 09:47:27;;;;;;;9.43;5.05;;;;;;;29.37;8.90;100187.50;5066675;28;20080;-70
2024/03/21 09:49:53;;;;;;;;;;;;;;;29.63;8.80;100185.69;5050700;28;20127;-70
2024/03/21 09:52:18;;;;;;;7.05;4.90;;;;;;;29.44;8.81;100188.09;5060706;28;20015;-70
2024/03/21 09:54:44;;;;;;;7.65;5.00;;;;;;;30.17;8.68;100183.38;5061259;28;20475;-70
2024/03/21 09:57:14;;;;;;;9.65;5.32;;;;;;;29.78;8.67;100173.97;5068831;28;20080;-69
2024/03/21 09:59:41;;;;;;;4.95;4.55;;;;;;;29.24;8.90;100174.31;5060240;28;20049;-69
2024/03/21 10:02:13;;;;;;;5.63;4.88;;;;;;;29.06;9.02;100173.94;5062301;28;20037;-70
2024/03/21 10:04:41;;;;;;;5.10;4.53;;;;;;;29.37;9.14;100171.09;5054121;28;20056;-69
2024/03/21 10:07:19;;;;;;;8.63;5.00;;;;;;;29.35;8.83;100169.72;5035966;28;20486;-69
2024/03/21 10:09:56;;;;;;;7.50;4.70;;;;;;;29.33;8.79;100169.97;5032888;28;20047;-70
2024/03/21 10:12:26;;;;;;;5.32;4.65;;;;;;;29.80;8.94;100158.13;5057645;28;20045;-69
2024/03/21 10:14:55;;;;;;;6.07;4.60;;;;;;;30.64;8.69;100165.59;5025100;28;20037;-69
2024/03/21 10:17:24;;;;;;;5.07;4.57;;;;;;;30.29;8.38;100162.03;5069180;28;20138;-69
2024/03/21 10:19:50;;;;;;;5.70;5.03;;;;;;;29.78;8.63;100163.03;4971358;28;20095;-69
2024/03/21 10:22:23;;;;;;;5.88;5.22;;;;;;;30.23;9.03;100154.91;5053465;28;20502;-70
2024/03/21 10:24:53;;;;;;;6.47;5.50;;;;;;;31.18;8.26;100163.00;5069983;28;20056;-69
2024/03/21 10:27:20;;;;;;;5.38;4.88;;;;;;;31.54;8.14;100155.50;5032317;28;20560;-69
2024/03/21 10:29:46;;;;;;;4.40;4.00;;;;;;;31.86;7.72;100162.19;5048373;28;20079;-70
2024/03/21 10:32:22;;;;;;;7.03;5.20;;;;;;;33.17;7.53;100167.38;5031980;28;20110;-70
2024/03/21 10:34:49;;;;;;;4.88;4.30;;;;;;;34.03;7.34;100153.28;5034326;28;20045;-71
2024/03/21 10:37:16;;;;;;;5.35;4.85;;;;;;;33.29;7.34;100155.97;5031411;28;20048;-73
2024/03/21 10:39:42;;;;;;;6.80;4.40;;;;;;;32.40;7.64;100159.31;5047994;28;20044;-69
2024/03/21 10:42:16;;;;;;;5.22;4.72;;;;;;;32.94;8.21;100148.13;5031464;28;20130;-70
2024/03/21 10:44:44;;;;;;;6.28;4.20;;;;;;;34.70;7.31;100140.88;5014864;28;20629;-71
2024/03/21 10:47:13;;;;;;;4.43;3.90;;;;;;;35.38;7.37;100137.06;5014299;28;20545;-70
2024/03/21 10:49:41;;;;;;;4.50;4.10;;;;;;;36.53;6.47;100144.63;5009792;28;20160;-71
2024/03/21 10:52:13;;;;;;;5.43;4.22;;;;;;;36.35;6.04;100142.84;4999804;28;20052;-71
2024/03/21 10:54:39;;;;;;;6.75;4.35;;;;;;;35.54;6.34;100146.66;5035682;28;20114;-70
2024/03/21 10:57:19;;;;;;;4.15;3.78;;;;;;;35.37;6.98;100129.09;5035532;28;20051;-70
2024/03/21 11:00:14;;;;;;;4.32;3.72;;;;;;;35.81;6.68;100137.50;5080923;28;20041;-69
2024/03/21 11:02:48;;;;;;;8.55;3.83;;;;;;;35.77;6.44;100133.72;5065519;28;20567;-71
2024/03/21 11:05:16;;;;;;;6.20;4.13;;;;;;;34.67;6.67;100127.69;5060335;28;20052;-71
2024/03/21 11:07:45;;;;;;;4.78;4.28;;;;;;;33.39;7.10;100112.59;5036921;28;20036;-71
2024/03/21 11:10:19;;;;;;;5.35;4.30;;;;;;;32.85;7.32;100114.88;5054107;28;20098;-72
2024/03/21 11:12:46;;;;;;;4.57;4.13;;;;;;;33.50;7.57;100113.28;5037132;28;20037;-71
2024/03/21 11:15:12;;;;;;;4.90;3.88;;;;;;;34.40;7.54;100108.34;5036925;28;20543;-72
2024/03/21 11:17:39;;;;;;;4.35;3.85;;;;;;;34.97;7.28;100105.03;5070033;28;20052;-70
2024/03/21 11:20:10;;;;;;;7.07;4.20;;;;;;;34.50;7.06;100111.72;5037364;28;20045;-72
2024/03/21 11:22:44;;;;;;;7.13;4.20;;;;;;;33.88;7.58;100102.00;5053416;28;20048;-72
2024/03/21 11:25:14;;;;;;;7.63;3.63;;;;;;;34.58;7.08;100101.94;5054036;28;20048;-71